Flight Track Log - Related Links

Times and Time Zones

All times are in EST time to prevent confusion due to time zone crossing. See the AAY956 flight status page for this flight to view local times or setup timezone preferences in your user account.


Time Position Orientation Groundspeed Altitude Reporting Facility
EST Latitude Longitude Course Direction KTS MPH feet Rate Location/Type
Fri 03:32:03 PM 27.0636 -81.9272 24° Northeast 231 266 4,000  Level Miami Center
Fri 03:33:03 PM 27.1369 -81.9186 North 249 287 5,100 1,800 Climbing Miami Center
Fri 03:34:03 PM 27.2108 -81.8939 17° North 261 300 7,600 2,750 Climbing Miami Center
Fri 03:35:03 PM 27.2906 -81.8786 10° North 273 314 10,600 2,050 Climbing Miami Center
Fri 03:36:00 PM 27.5388 -81.7306 24° Northeast  Level FlightAware Approximate
Fri 03:36:03 PM 27.3750 -81.8542 14° North 290 334 11,700  Level Miami Center
Fri 03:37:03 PM 27.4781 -81.8261 14° North 331 381 13,600 1,924 Climbing Miami Center
Fri 03:38:14 PM 27.5800 -81.7742 24° Northeast 383 441 15,900 2,182 Climbing Miami Center
Fri 03:39:15 PM 27.7114 -81.7189 20° North 406 467 18,400 1,773 Climbing Miami Center
Fri 03:40:26 PM 27.8111 -81.6692 24° Northeast 425 489 19,800 1,455 Climbing Miami Center
Fri 03:41:27 PM 27.9511 -81.6047 22° Northeast 435 501 21,600 1,537 Climbing Miami Center
Fri 03:42:27 PM 28.0717 -81.5508 22° Northeast 447 514 22,900 1,412 Climbing Miami Center
Fri 03:43:26 PM 28.1711 -81.5081 21° North 459 528 24,400 1,700 Climbing Miami Center
Fri 03:44:27 PM 28.3131 -81.4408 23° Northeast 459 528 26,300 1,587 Climbing Miami Center
Fri 03:45:27 PM 28.4422 -81.3847 21° North 464 534 27,600 1,450 Climbing Miami Center
Fri 03:46:27 PM 28.5625 -81.3422 17° North 469 540 29,200 1,260 Climbing Miami Center
Fri 03:47:07 PM 28.6414 -81.3503 355° North 430 495 29,700 960 Climbing Jacksonville Center
Fri 03:48:07 PM 28.7647 -81.3556 358° North 424 488 30,800 800 Climbing Jacksonville Center
Fri 03:49:07 PM 28.8881 -81.3703 354° North 424 488 31,300 600 Climbing Jacksonville Center
Fri 03:50:07 PM 29.0133 -81.3800 356° North 434 499 32,000 650 Climbing Jacksonville Center
Fri 03:51:07 PM 29.1408 -81.3925 355° North 450 518 32,600 500 Climbing Jacksonville Center
Fri 03:52:07 PM 29.2622 -81.4167 350° North 450 518 33,000 200 Climbing Jacksonville Center
Fri 03:53:07 PM 29.3836 -81.4578 344° North 445 512 33,000  Level Jacksonville Center
Fri 03:54:07 PM 29.5072 -81.4847 349° North 445 512 33,000  Level Jacksonville Center
Fri 03:55:07 PM 29.6306 -81.5117 349° North 451 519 33,000  Level Jacksonville Center
Fri 03:56:07 PM 29.7561 -81.5289 353° North 451 519 33,000  Level Jacksonville Center
Fri 03:57:07 PM 29.8775 -81.5486 352° North 451 519 33,000  Level Jacksonville Center
Fri 03:58:07 PM 29.9986 -81.5711 351° North 445 512 33,000  Level Jacksonville Center
Fri 03:59:07 PM 30.1219 -81.5861 354° North 445 512 33,000  Level Jacksonville Center
Fri 04:00:07 PM 30.2414 -81.6086 351° North 445 512 33,000  Level Jacksonville Center
Fri 04:01:07 PM 30.3603 -81.6214 355° North 440 506 33,000  Level Jacksonville Center
Fri 04:02:07 PM 30.4775 -81.6439 351° North 435 501 33,000  Level Jacksonville Center
Fri 04:03:07 PM 30.5989 -81.6594 354° North 428 493 33,000  Level Jacksonville Center
Fri 04:04:07 PM 30.7158 -81.6819 351° North 428 493 33,000  Level Jacksonville Center
Fri 04:05:07 PM 30.8372 -81.6975 354° North 428 493 33,000  Level Jacksonville Center
Fri 04:06:07 PM 30.9522 -81.7178 351° North 428 493 33,000  Level Jacksonville Center
Fri 04:07:07 PM 31.0692 -81.7356 353° North 422 486 33,000  Level Jacksonville Center
Fri 04:08:07 PM 31.1781 -81.7561 351° North 416 479 33,000  Level Jacksonville Center
Fri 04:09:07 PM 31.2931 -81.7767 351° North 416 479 33,000  Level Jacksonville Center
Fri 04:10:07 PM 31.4081 -81.7900 354° North 405 466 33,000  Level Jacksonville Center
Fri 04:11:58 PM 31.6286 -81.8219 353° North 437 503 33,000  Level Atlanta Center
Fri 04:12:58 PM 31.7417 -81.8458 350° North 424 488 33,000  Level Atlanta Center
Fri 04:13:58 PM 31.8608 -81.8603 354° North 424 488 33,000  Level Atlanta Center
Fri 04:14:58 PM 31.9761 -81.8819 351° North 424 488 33,000  Level Atlanta Center
Fri 04:15:58 PM 32.0953 -81.8961 354° North 424 488 33,000  Level Atlanta Center
Fri 04:16:58 PM 32.2128 -81.9228 349° North 424 488 33,000  Level Atlanta Center
Fri 04:17:58 PM 32.3403 -81.9369 355° North 424 488 33,000  Level Atlanta Center
Fri 04:18:58 PM 32.4575 -81.9589 351° North 424 488 33,000  Level Atlanta Center
Fri 04:19:58 PM 32.5767 -81.9708 355° North 429 494 33,000  Level Atlanta Center
Fri 04:20:58 PM 32.6919 -81.9953 350° North 423 487 33,000  Level Atlanta Center
Fri 04:21:58 PM 32.8108 -81.9925 North 423 487 33,000  Level Atlanta Center
Fri 04:22:58 PM 32.9319 -81.9919 360° North 428 493 33,000  Level Atlanta Center
Fri 04:23:58 PM 33.0506 -81.9842 North 428 493 33,000  Level Atlanta Center
Fri 04:24:58 PM 33.1697 -81.9814 North 423 487 33,000  Level Atlanta Center
Fri 04:25:58 PM 33.2886 -81.9811 360° North 423 487 33,000  Level Atlanta Center
Fri 04:26:58 PM 33.4053 -81.9733 North 423 487 33,000  Level Atlanta Center
Fri 04:27:58 PM 33.5158 -81.9708 North 423 487 33,000  Level Atlanta Center
Fri 04:28:58 PM 33.6369 -81.9678 North 423 487 33,000  Level Atlanta Center
Fri 04:29:58 PM 33.7539 -81.9650 North 423 487 33,000  Level Atlanta Center
Fri 04:30:58 PM 33.8706 -81.9622 North 417 480 33,000  Level Atlanta Center
Fri 04:31:58 PM 33.9894 -81.9594 North 417 480 33,000  Level Atlanta Center
Fri 04:32:58 PM 34.1064 -81.9539 North 417 480 33,000  Level Atlanta Center
Fri 04:33:58 PM 34.2253 -81.9511 North 422 486 33,000  Level Atlanta Center
Fri 04:34:58 PM 34.3397 -81.9331 North 422 486 33,000  Level Atlanta Center
Fri 04:35:58 PM 34.4561 -81.9100 North 422 486 33,000  Level Atlanta Center
Fri 04:36:58 PM 34.5664 -81.8819 12° North 422 486 33,000  Level Atlanta Center
Fri 04:37:58 PM 34.6931 -81.8536 10° North 416 479 33,000  Level Atlanta Center
Fri 04:38:58 PM 34.8075 -81.8328 North 416 479 33,000  Level Atlanta Center
Fri 04:39:58 PM 34.9197 -81.8019 13° North 411 473 33,000  Level Atlanta Center
Fri 04:40:58 PM 35.0297 -81.7686 14° North 411 473 33,000  Level Atlanta Center
Fri 04:41:58 PM 35.1458 -81.7425 10° North 411 473 33,000  Level Atlanta Center
Fri 04:42:58 PM 35.2603 -81.7139 12° North 411 473 33,000  Level Atlanta Center
Fri 04:43:58 PM 35.3744 -81.6878 11° North 411 473 33,000  Level Atlanta Center
Fri 04:44:58 PM 35.4906 -81.6539 13° North 411 473 33,000  Level Atlanta Center
Fri 04:45:58 PM 35.6069 -81.6300 North 411 473 33,000  Level Atlanta Center
Fri 04:46:58 PM 35.7211 -81.5961 14° North 416 479 33,000  Level Atlanta Center
Fri 04:47:58 PM 35.8250 -81.5725 10° North 416 479 33,000  Level Atlanta Center
Fri 04:48:58 PM 35.9411 -81.5433 11° North 411 473 33,000  Level Atlanta Center
Fri 04:49:58 PM 36.0531 -81.5114 13° North 411 473 33,000  Level Atlanta Center
Fri 04:50:58 PM 36.1694 -81.4872 10° North 411 473 33,000  Level Atlanta Center
Fri 04:51:58 PM 36.2856 -81.4500 14° North 411 473 33,000  Level Atlanta Center
Fri 04:52:58 PM 36.3994 -81.4206 12° North 411 473 33,000  Level Atlanta Center
Fri 04:55:23 PM 36.6853 -81.3442 12° North 423 487 33,000  Level Indianapolis Center
Fri 04:56:26 PM 36.7983 -81.3214 North 422 486 33,000  Level Indianapolis Center
Fri 04:57:28 PM 36.9106 -81.2856 14° North 424 488 33,000  Level Indianapolis Center
Fri 04:58:30 PM 37.0378 -81.2569 10° North 425 489 33,000  Level Indianapolis Center
Fri 04:59:32 PM 37.1525 -81.2236 13° North 425 489 33,000  Level Indianapolis Center
Fri 05:00:34 PM 37.2869 -81.1928 10° North 425 489 33,000  Level Indianapolis Center
Fri 05:01:36 PM 37.3847 -81.1617 14° North 424 488 33,000  Level Indianapolis Center
Fri 05:02:38 PM 37.5211 -81.1325 10° North 423 487 33,000  Level Indianapolis Center
Fri 05:03:40 PM 37.6344 -81.0953 15° North 426 490 33,000  Level Indianapolis Center
Fri 05:04:42 PM 37.7483 -81.0714 North 426 490 33,000  Level Indianapolis Center
Fri 05:05:45 PM 37.8597 -81.0358 14° North 423 487 33,000  Level Indianapolis Center
Fri 05:06:47 PM 37.9969 -81.0033 11° North 423 487 33,000  Level Indianapolis Center
Fri 05:07:49 PM 38.1103 -80.9675 14° North 422 486 33,000  Level Indianapolis Center
Fri 05:08:51 PM 38.2217 -80.9439 North 413 475 33,000  Level Indianapolis Center
Fri 05:09:53 PM 38.3300 -80.9081 15° North 408 470 33,000  Level Indianapolis Center
Fri 05:10:55 PM 38.4392 -80.8847 10° North 404 465 33,000  Level Indianapolis Center
Fri 05:11:57 PM 38.5681 -80.8439 14° North 403 464 33,000  Level Indianapolis Center
Fri 05:12:59 PM 38.6758 -80.8178 11° North 400 460 33,000  Level Indianapolis Center
Fri 05:14:01 PM 38.7817 -80.7864 13° North 398 458 33,000  Level Indianapolis Center
Fri 05:15:04 PM 38.8911 -80.7597 11° North 398 458 33,000  Level Indianapolis Center
Fri 05:16:06 PM 38.9983 -80.7278 13° North 398 458 33,000  Level Indianapolis Center
Fri 05:17:08 PM 39.1283 -80.6936 12° North 398 458 33,000  Level Indianapolis Center
Fri 05:18:10 PM 39.2356 -80.6611 13° North 398 458 33,000  Level Indianapolis Center
Fri 05:19:12 PM 39.3442 -80.6333 11° North 398 458 33,000  Level Indianapolis Center
Fri 05:20:14 PM 39.4522 -80.6014 13° North 398 458 33,000  Level Indianapolis Center
Fri 05:21:16 PM 39.5603 -80.5750 11° North 399 459 33,000  Level Indianapolis Center
Fri 05:22:18 PM 39.6678 -80.5397 14° North 399 459 33,000 -242 Level Indianapolis Center
Fri 05:23:20 PM 39.7983 -80.5042 12° North 399 459 32,500 -968 Descending Indianapolis Center
Fri 05:24:22 PM 39.9069 -80.4753 12° North 399 459 31,000 -720 Descending Indianapolis Center
Fri 05:25:25 PM 40.0186 -80.4331 16° North 401 461 31,000  Level Indianapolis Center
Fri 05:26:27 PM 40.1256 -80.3803 21° North 403 464 31,000  Level Indianapolis Center
Fri 05:27:29 PM 40.2342 -80.3336 18° North 405 466 31,000  Level Indianapolis Center
Fri 05:28:31 PM 40.3408 -80.2822 20° North 405 466 31,000  Level Indianapolis Center
Fri 05:29:33 PM 40.4481 -80.2339 19° North 405 466 31,000  Level Indianapolis Center
Fri 05:30:55 PM 40.6086 -80.1617 19° North 406 467 31,000 -42 Level Cleveland Center
Fri 05:31:57 PM 40.7144 -80.1056 22° Northeast 408 470 30,900 -968 Descending Cleveland Center
Fri 05:32:59 PM 40.8214 -80.0642 16° North 407 468 29,000 -1,790 Descending Cleveland Center
Fri 05:34:01 PM 40.9414 -80.0006 22° Northeast 416 479 27,200 -1,632 Descending Cleveland Center
Fri 05:35:04 PM 41.0506 -79.9539 18° North 414 476 25,600 -1,488 Descending Cleveland Center
Fri 05:36:06 PM 41.1700 -79.8914 21° North 424 488 24,100 -774 Descending Cleveland Center
Fri 05:37:08 PM 41.2792 -79.8456 18° North 417 480 24,000 -48 Descending Cleveland Center
Fri 05:38:10 PM 41.3864 -79.7883 22° Northeast 417 480 24,000  Level Cleveland Center
Fri 05:39:12 PM 41.4961 -79.7417 18° North 416 479 24,000  Level Cleveland Center
Fri 05:40:14 PM 41.6053 -79.6858 21° North 418 481 24,000 -97 Level Cleveland Center
Fri 05:41:16 PM 41.7286 -79.6300 19° North 419 482 23,800 -629 Descending Cleveland Center
Fri 05:42:18 PM 41.8347 -79.5736 22° Northeast 386 444 22,700 -1,403 Descending Cleveland Center
Fri 05:43:20 PM 41.9300 -79.5325 18° North 367 422 20,900 -1,632 Descending Cleveland Center
Fri 05:44:23 PM 42.0256 -79.4806 22° Northeast 371 427 19,300 -1,536 Descending Cleveland Center
Fri 05:45:25 PM 42.1200 -79.4397 18° North 361 415 17,700 -1,548 Descending Cleveland Center
Fri 05:46:27 PM 42.2131 -79.3908 21° North 361 415 16,100 -1,694 Descending Cleveland Center
Fri 05:47:29 PM 42.3211 -79.3408 19° North 344 396 14,200 -1,694 Descending Cleveland Center
Fri 05:48:31 PM 42.4075 -79.2944 22° Northeast 337 388 12,600 -1,452 Descending Cleveland Center
Fri 05:49:33 PM 42.4817 -79.2503 24° Northeast 328 377 11,200 -1,452 Descending Cleveland Center
Fri 05:50:35 PM 42.5742 -79.1875 27° Northeast 312 359 9,600 -1,597 Descending Cleveland Center
Fri 05:51:37 PM 42.6486 -79.1408 25° Northeast 290 334 7,900 -1,306 Descending Cleveland Center
Fri 05:52:39 PM 42.7228 -79.0897 27° Northeast 288 331 6,900 -1,008 Descending Cleveland Center
Fri 05:53:42 PM 42.7978 -79.0447 24° Northeast 287 330 5,800 -960 Descending Cleveland Center
Fri 05:54:44 PM 42.8706 -78.9956 26° Northeast 284 327 4,900 -919 Descending Cleveland Center
Fri 05:55:46 PM 42.9372 -78.9533 25° Northeast 279 321 3,900 -968 Descending Cleveland Center
Fri 05:56:48 PM 43.0094 -78.9042 26° Northeast 279 321 2,900 -1,018 Descending Cleveland Center
Fri 05:57:38 PM 43.0667 -78.8500 35° Northeast 254 292 2,000 -595 Descending Buffalo TRACON
Fri 05:58:39 PM 43.1167 -78.8500 360° North 177 204 1,800 -524 Descending Buffalo TRACON
Fri 05:59:44 PM 43.1167 -78.9000 270° West 121 139 900 -831 Descending Buffalo TRACON
Fri 06:01:00 PM 43.1000 -78.9333 26° Northeast  Level FlightAware Approximate

Login

Don't have an account? Register now (free) for customized features, flight alerts, and more!